sensor_id;sensor_type;location;lat;lon;timestamp;P1;durP1;ratioP1;P2;durP2;ratioP2
462;SDS011;218;51.902;9.542;2022-08-21T00:02:25;6.17;;;5.87;;
462;SDS011;218;51.902;9.542;2022-08-21T00:04:53;5.67;;;5.37;;
462;SDS011;218;51.902;9.542;2022-08-21T00:07:21;7.30;;;6.70;;
462;SDS011;218;51.902;9.542;2022-08-21T00:09:48;6.53;;;6.03;;
462;SDS011;218;51.902;9.542;2022-08-21T00:12:15;6.70;;;6.10;;
462;SDS011;218;51.902;9.542;2022-08-21T00:14:42;5.40;;;5.10;;
462;SDS011;218;51.902;9.542;2022-08-21T00:17:09;6.43;;;5.93;;
462;SDS011;218;51.902;9.542;2022-08-21T00:19:37;5.67;;;5.37;;
462;SDS011;218;51.902;9.542;2022-08-21T00:22:04;5.17;;;4.80;;
462;SDS011;218;51.902;9.542;2022-08-21T00:24:32;4.33;;;4.13;;
462;SDS011;218;51.902;9.542;2022-08-21T00:26:59;6.43;;;5.67;;
462;SDS011;218;51.902;9.542;2022-08-21T00:29:26;6.07;;;5.47;;
462;SDS011;218;51.902;9.542;2022-08-21T00:31:54;6.50;;;6.03;;
462;SDS011;218;51.902;9.542;2022-08-21T00:34:21;6.60;;;6.17;;
462;SDS011;218;51.902;9.542;2022-08-21T00:36:49;5.90;;;5.30;;
462;SDS011;218;51.902;9.542;2022-08-21T00:39:16;5.70;;;5.30;;
462;SDS011;218;51.902;9.542;2022-08-21T00:41:43;6.23;;;5.63;;
462;SDS011;218;51.902;9.542;2022-08-21T00:44:12;6.00;;;5.57;;
462;SDS011;218;51.902;9.542;2022-08-21T00:46:41;5.80;;;5.40;;
462;SDS011;218;51.902;9.542;2022-08-21T00:49:09;6.77;;;6.13;;
462;SDS011;218;51.902;9.542;2022-08-21T00:51:39;5.43;;;5.03;;
462;SDS011;218;51.902;9.542;2022-08-21T00:54:11;5.20;;;4.80;;
462;SDS011;218;51.902;9.542;2022-08-21T00:56:39;5.57;;;5.17;;
462;SDS011;218;51.902;9.542;2022-08-21T00:59:06;8.70;;;6.87;;
462;SDS011;218;51.902;9.542;2022-08-21T01:01:34;5.80;;;5.40;;
462;SDS011;218;51.902;9.542;2022-08-21T01:04:02;5.23;;;4.90;;
462;SDS011;218;51.902;9.542;2022-08-21T01:06:29;6.17;;;5.70;;
462;SDS011;218;51.902;9.542;2022-08-21T01:08:57;5.90;;;5.33;;
462;SDS011;218;51.902;9.542;2022-08-21T01:11:25;5.90;;;5.37;;
462;SDS011;218;51.902;9.542;2022-08-21T01:13:54;6.50;;;6.00;;
462;SDS011;218;51.902;9.542;2022-08-21T01:16:21;6.60;;;6.03;;
462;SDS011;218;51.902;9.542;2022-08-21T01:18:49;5.70;;;5.30;;
462;SDS011;218;51.902;9.542;2022-08-21T01:21:18;6.30;;;5.70;;
462;SDS011;218;51.902;9.542;2022-08-21T01:23:49;5.87;;;5.47;;
462;SDS011;218;51.902;9.542;2022-08-21T01:26:20;6.17;;;5.77;;
462;SDS011;218;51.902;9.542;2022-08-21T01:28:54;8.00;;;6.80;;
462;SDS011;218;51.902;9.542;2022-08-21T01:31:25;7.50;;;6.90;;
462;SDS011;218;51.902;9.542;2022-08-21T01:33:54;5.67;;;5.27;;
462;SDS011;218;51.902;9.542;2022-08-21T01:36:23;6.67;;;6.10;;
462;SDS011;218;51.902;9.542;2022-08-21T01:38:51;9.00;;;7.00;;
462;SDS011;218;51.902;9.542;2022-08-21T01:41:19;7.53;;;6.93;;
462;SDS011;218;51.902;9.542;2022-08-21T01:43:46;7.60;;;7.00;;
462;SDS011;218;51.902;9.542;2022-08-21T01:46:13;8.00;;;7.50;;
462;SDS011;218;51.902;9.542;2022-08-21T01:48:40;7.60;;;7.00;;
462;SDS011;218;51.902;9.542;2022-08-21T01:51:08;6.40;;;6.00;;
462;SDS011;218;51.902;9.542;2022-08-21T01:53:38;6.53;;;6.13;;
462;SDS011;218;51.902;9.542;2022-08-21T01:56:06;6.90;;;6.40;;
462;SDS011;218;51.902;9.542;2022-08-21T01:58:35;7.40;;;6.83;;
462;SDS011;218;51.902;9.542;2022-08-21T02:01:02;6.73;;;6.23;;
462;SDS011;218;51.902;9.542;2022-08-21T02:03:30;7.80;;;7.10;;
462;SDS011;218;51.902;9.542;2022-08-21T02:05:57;7.17;;;6.67;;
462;SDS011;218;51.902;9.542;2022-08-21T02:08:24;6.67;;;6.30;;
462;SDS011;218;51.902;9.542;2022-08-21T02:10:52;5.87;;;5.47;;
462;SDS011;218;51.902;9.542;2022-08-21T02:13:20;5.00;;;4.70;;
462;SDS011;218;51.902;9.542;2022-08-21T02:15:47;9.00;;;5.10;;
462;SDS011;218;51.902;9.542;2022-08-21T02:18:14;5.30;;;5.00;;
462;SDS011;218;51.902;9.542;2022-08-21T02:20:44;4.70;;;4.50;;
462;SDS011;218;51.902;9.542;2022-08-21T02:23:13;4.60;;;4.37;;
462;SDS011;218;51.902;9.542;2022-08-21T02:25:41;5.57;;;5.27;;
462;SDS011;218;51.902;9.542;2022-08-21T02:28:12;5.30;;;5.00;;
462;SDS011;218;51.902;9.542;2022-08-21T02:30:42;4.80;;;4.40;;
462;SDS011;218;51.902;9.542;2022-08-21T02:33:11;4.93;;;4.63;;
462;SDS011;218;51.902;9.542;2022-08-21T02:35:40;4.43;;;4.13;;
462;SDS011;218;51.902;9.542;2022-08-21T02:38:09;4.63;;;4.33;;
462;SDS011;218;51.902;9.542;2022-08-21T02:40:38;4.80;;;4.50;;
462;SDS011;218;51.902;9.542;2022-08-21T02:43:07;4.80;;;4.50;;
462;SDS011;218;51.902;9.542;2022-08-21T02:45:36;4.67;;;4.37;;
462;SDS011;218;51.902;9.542;2022-08-21T02:48:04;5.33;;;5.03;;
462;SDS011;218;51.902;9.542;2022-08-21T02:50:33;4.80;;;4.60;;
462;SDS011;218;51.902;9.542;2022-08-21T02:53:02;5.27;;;4.90;;
462;SDS011;218;51.902;9.542;2022-08-21T02:55:30;4.53;;;4.33;;
462;SDS011;218;51.902;9.542;2022-08-21T02:57:58;5.00;;;4.70;;
462;SDS011;218;51.902;9.542;2022-08-21T03:00:27;5.10;;;4.67;;
462;SDS011;218;51.902;9.542;2022-08-21T03:02:56;5.23;;;4.83;;
462;SDS011;218;51.902;9.542;2022-08-21T03:05:24;4.80;;;4.50;;
462;SDS011;218;51.902;9.542;2022-08-21T03:07:54;4.20;;;4.00;;
462;SDS011;218;51.902;9.542;2022-08-21T03:10:21;4.00;;;3.80;;
462;SDS011;218;51.902;9.542;2022-08-21T03:12:48;4.60;;;4.30;;
462;SDS011;218;51.902;9.542;2022-08-21T03:15:17;5.10;;;4.77;;
462;SDS011;218;51.902;9.542;2022-08-21T03:17:45;4.57;;;4.33;;
462;SDS011;218;51.902;9.542;2022-08-21T03:20:15;6.50;;;4.70;;
462;SDS011;218;51.902;9.542;2022-08-21T03:22:44;3.90;;;3.60;;
462;SDS011;218;51.902;9.542;2022-08-21T03:25:11;4.90;;;4.60;;
462;SDS011;218;51.902;9.542;2022-08-21T03:27:38;4.70;;;4.50;;
462;SDS011;218;51.902;9.542;2022-08-21T03:30:06;4.07;;;3.87;;
462;SDS011;218;51.902;9.542;2022-08-21T03:32:34;4.70;;;4.30;;
462;SDS011;218;51.902;9.542;2022-08-21T03:35:02;5.00;;;4.70;;
462;SDS011;218;51.902;9.542;2022-08-21T03:37:30;5.37;;;4.83;;
462;SDS011;218;51.902;9.542;2022-08-21T03:39:58;4.97;;;4.57;;
462;SDS011;218;51.902;9.542;2022-08-21T03:42:25;5.13;;;4.70;;
462;SDS011;218;51.902;9.542;2022-08-21T03:44:52;4.30;;;4.00;;
462;SDS011;218;51.902;9.542;2022-08-21T03:47:19;5.20;;;4.90;;
462;SDS011;218;51.902;9.542;2022-08-21T03:49:47;5.40;;;5.00;;
462;SDS011;218;51.902;9.542;2022-08-21T03:52:14;4.90;;;4.60;;
462;SDS011;218;51.902;9.542;2022-08-21T03:54:43;4.70;;;4.40;;
462;SDS011;218;51.902;9.542;2022-08-21T03:57:10;4.97;;;4.67;;
462;SDS011;218;51.902;9.542;2022-08-21T03:59:37;4.57;;;4.30;;
462;SDS011;218;51.902;9.542;2022-08-21T04:02:05;4.77;;;4.50;;
462;SDS011;218;51.902;9.542;2022-08-21T04:04:33;4.50;;;4.30;;
462;SDS011;218;51.902;9.542;2022-08-21T04:07:00;4.40;;;4.10;;
462;SDS011;218;51.902;9.542;2022-08-21T04:09:27;4.93;;;4.63;;
462;SDS011;218;51.902;9.542;2022-08-21T04:11:56;4.20;;;4.00;;
462;SDS011;218;51.902;9.542;2022-08-21T04:14:24;4.43;;;4.00;;
462;SDS011;218;51.902;9.542;2022-08-21T04:16:51;4.50;;;4.30;;
462;SDS011;218;51.902;9.542;2022-08-21T04:19:18;5.10;;;4.70;;
462;SDS011;218;51.902;9.542;2022-08-21T04:21:45;5.00;;;4.70;;
462;SDS011;218;51.902;9.542;2022-08-21T04:24:12;4.67;;;4.37;;
462;SDS011;218;51.902;9.542;2022-08-21T04:26:39;5.10;;;4.80;;
462;SDS011;218;51.902;9.542;2022-08-21T04:29:07;4.70;;;4.40;;
462;SDS011;218;51.902;9.542;2022-08-21T04:31:35;5.50;;;4.60;;
462;SDS011;218;51.902;9.542;2022-08-21T04:34:02;4.63;;;4.13;;
462;SDS011;218;51.902;9.542;2022-08-21T04:36:29;4.27;;;4.07;;
462;SDS011;218;51.902;9.542;2022-08-21T04:38:57;5.03;;;4.73;;
462;SDS011;218;51.902;9.542;2022-08-21T04:41:24;4.70;;;4.50;;
462;SDS011;218;51.902;9.542;2022-08-21T04:43:51;5.10;;;4.80;;
462;SDS011;218;51.902;9.542;2022-08-21T04:46:21;5.20;;;4.80;;
462;SDS011;218;51.902;9.542;2022-08-21T04:48:48;4.30;;;4.00;;
462;SDS011;218;51.902;9.542;2022-08-21T04:51:16;5.23;;;4.90;;
462;SDS011;218;51.902;9.542;2022-08-21T04:53:47;3.90;;;3.70;;
462;SDS011;218;51.902;9.542;2022-08-21T04:56:18;4.30;;;4.00;;
462;SDS011;218;51.902;9.542;2022-08-21T04:58:48;4.20;;;3.90;;
462;SDS011;218;51.902;9.542;2022-08-21T05:01:19;4.30;;;4.10;;
462;SDS011;218;51.902;9.542;2022-08-21T05:03:52;5.53;;;5.13;;
462;SDS011;218;51.902;9.542;2022-08-21T05:06:22;4.27;;;3.97;;
462;SDS011;218;51.902;9.542;2022-08-21T05:08:51;4.13;;;3.90;;
462;SDS011;218;51.902;9.542;2022-08-21T05:11:21;5.03;;;4.73;;
462;SDS011;218;51.902;9.542;2022-08-21T05:13:48;4.77;;;4.40;;
462;SDS011;218;51.902;9.542;2022-08-21T05:16:16;4.57;;;4.17;;
462;SDS011;218;51.902;9.542;2022-08-21T05:18:44;4.73;;;4.40;;
462;SDS011;218;51.902;9.542;2022-08-21T05:21:11;6.23;;;4.80;;
462;SDS011;218;51.902;9.542;2022-08-21T05:23:38;4.70;;;4.30;;
462;SDS011;218;51.902;9.542;2022-08-21T05:26:05;4.80;;;4.50;;
462;SDS011;218;51.902;9.542;2022-08-21T05:28:32;3.73;;;3.50;;
462;SDS011;218;51.902;9.542;2022-08-21T05:30:59;4.30;;;4.10;;
462;SDS011;218;51.902;9.542;2022-08-21T05:33:26;4.37;;;4.07;;
462;SDS011;218;51.902;9.542;2022-08-21T05:35:54;3.80;;;3.60;;
462;SDS011;218;51.902;9.542;2022-08-21T05:38:22;4.20;;;4.00;;
462;SDS011;218;51.902;9.542;2022-08-21T05:40:49;4.30;;;4.00;;
462;SDS011;218;51.902;9.542;2022-08-21T05:43:17;4.20;;;3.90;;
462;SDS011;218;51.902;9.542;2022-08-21T05:45:44;5.20;;;3.90;;
462;SDS011;218;51.902;9.542;2022-08-21T05:48:13;4.63;;;4.33;;
462;SDS011;218;51.902;9.542;2022-08-21T05:50:43;4.80;;;4.50;;
462;SDS011;218;51.902;9.542;2022-08-21T05:53:13;4.40;;;4.10;;
462;SDS011;218;51.902;9.542;2022-08-21T05:55:41;4.67;;;4.37;;
462;SDS011;218;51.902;9.542;2022-08-21T05:58:10;5.70;;;5.30;;
462;SDS011;218;51.902;9.542;2022-08-21T06:00:37;6.40;;;4.90;;
462;SDS011;218;51.902;9.542;2022-08-21T06:03:04;4.40;;;4.10;;
462;SDS011;218;51.902;9.542;2022-08-21T06:05:36;5.13;;;4.83;;
462;SDS011;218;51.902;9.542;2022-08-21T06:08:03;5.30;;;4.90;;
462;SDS011;218;51.902;9.542;2022-08-21T06:10:31;5.10;;;4.80;;
462;SDS011;218;51.902;9.542;2022-08-21T06:12:58;6.13;;;5.60;;
462;SDS011;218;51.902;9.542;2022-08-21T06:15:25;7.50;;;6.90;;
462;SDS011;218;51.902;9.542;2022-08-21T06:17:52;7.40;;;6.70;;
462;SDS011;218;51.902;9.542;2022-08-21T06:20:20;7.67;;;6.83;;
462;SDS011;218;51.902;9.542;2022-08-21T06:22:47;9.13;;;8.23;;
462;SDS011;218;51.902;9.542;2022-08-21T06:25:14;8.83;;;8.00;;
462;SDS011;218;51.902;9.542;2022-08-21T06:27:43;9.60;;;8.70;;
462;SDS011;218;51.902;9.542;2022-08-21T06:30:10;9.03;;;8.23;;
462;SDS011;218;51.902;9.542;2022-08-21T06:32:37;10.97;;;9.90;;
462;SDS011;218;51.902;9.542;2022-08-21T06:35:05;9.77;;;8.77;;
462;SDS011;218;51.902;9.542;2022-08-21T06:37:32;10.90;;;9.90;;
462;SDS011;218;51.902;9.542;2022-08-21T06:39:59;12.07;;;10.77;;
462;SDS011;218;51.902;9.542;2022-08-21T06:42:26;10.33;;;9.43;;
462;SDS011;218;51.902;9.542;2022-08-21T06:44:55;12.30;;;11.20;;
462;SDS011;218;51.902;9.542;2022-08-21T06:47:26;10.33;;;9.33;;
462;SDS011;218;51.902;9.542;2022-08-21T06:49:52;12.10;;;11.00;;
462;SDS011;218;51.902;9.542;2022-08-21T06:52:20;12.30;;;11.20;;
462;SDS011;218;51.902;9.542;2022-08-21T06:54:47;10.80;;;9.80;;
462;SDS011;218;51.902;9.542;2022-08-21T06:57:15;11.20;;;10.17;;
462;SDS011;218;51.902;9.542;2022-08-21T06:59:42;11.07;;;9.97;;
462;SDS011;218;51.902;9.542;2022-08-21T07:02:11;12.10;;;10.93;;
462;SDS011;218;51.902;9.542;2022-08-21T07:04:38;11.13;;;10.17;;
462;SDS011;218;51.902;9.542;2022-08-21T07:07:05;12.07;;;10.97;;
462;SDS011;218;51.902;9.542;2022-08-21T07:09:32;12.33;;;11.20;;
462;SDS011;218;51.902;9.542;2022-08-21T07:11:59;12.37;;;11.20;;
462;SDS011;218;51.902;9.542;2022-08-21T07:14:26;13.80;;;12.33;;
462;SDS011;218;51.902;9.542;2022-08-21T07:16:53;14.27;;;12.90;;
462;SDS011;218;51.902;9.542;2022-08-21T07:19:21;12.83;;;11.57;;
462;SDS011;218;51.902;9.542;2022-08-21T07:21:48;14.17;;;12.73;;
462;SDS011;218;51.902;9.542;2022-08-21T07:24:16;14.93;;;13.40;;
462;SDS011;218;51.902;9.542;2022-08-21T07:26:43;15.47;;;14.07;;
462;SDS011;218;51.902;9.542;2022-08-21T07:29:10;14.57;;;13.37;;
462;SDS011;218;51.902;9.542;2022-08-21T07:31:37;14.00;;;12.57;;
462;SDS011;218;51.902;9.542;2022-08-21T07:34:04;13.87;;;12.70;;
462;SDS011;218;51.902;9.542;2022-08-21T07:36:33;12.53;;;11.43;;
462;SDS011;218;51.902;9.542;2022-08-21T07:39:00;14.10;;;12.90;;
462;SDS011;218;51.902;9.542;2022-08-21T07:41:27;15.47;;;13.87;;
462;SDS011;218;51.902;9.542;2022-08-21T07:43:59;14.23;;;13.00;;
462;SDS011;218;51.902;9.542;2022-08-21T07:46:27;12.80;;;11.77;;
462;SDS011;218;51.902;9.542;2022-08-21T07:48:54;14.57;;;13.23;;
462;SDS011;218;51.902;9.542;2022-08-21T07:51:21;14.33;;;13.23;;
462;SDS011;218;51.902;9.542;2022-08-21T07:53:54;14.70;;;13.40;;
462;SDS011;218;51.902;9.542;2022-08-21T07:56:22;15.00;;;13.60;;
462;SDS011;218;51.902;9.542;2022-08-21T07:58:49;15.63;;;14.23;;
462;SDS011;218;51.902;9.542;2022-08-21T08:01:16;14.03;;;12.53;;
462;SDS011;218;51.902;9.542;2022-08-21T08:03:43;12.27;;;11.23;;
462;SDS011;218;51.902;9.542;2022-08-21T08:06:11;13.17;;;12.07;;
462;SDS011;218;51.902;9.542;2022-08-21T08:08:39;14.43;;;13.13;;
462;SDS011;218;51.902;9.542;2022-08-21T08:11:08;13.20;;;12.10;;
462;SDS011;218;51.902;9.542;2022-08-21T08:13:38;13.47;;;12.37;;
462;SDS011;218;51.902;9.542;2022-08-21T08:16:06;14.97;;;13.43;;
462;SDS011;218;51.902;9.542;2022-08-21T08:18:33;13.63;;;12.53;;
462;SDS011;218;51.902;9.542;2022-08-21T08:21:00;12.70;;;11.67;;
462;SDS011;218;51.902;9.542;2022-08-21T08:23:27;13.10;;;11.97;;
462;SDS011;218;51.902;9.542;2022-08-21T08:25:55;11.13;;;10.23;;
462;SDS011;218;51.902;9.542;2022-08-21T08:28:24;11.07;;;10.00;;
462;SDS011;218;51.902;9.542;2022-08-21T08:30:52;11.93;;;10.93;;
462;SDS011;218;51.902;9.542;2022-08-21T08:33:19;11.40;;;10.20;;
462;SDS011;218;51.902;9.542;2022-08-21T08:35:47;11.30;;;10.20;;
462;SDS011;218;51.902;9.542;2022-08-21T08:38:16;10.43;;;9.50;;
462;SDS011;218;51.902;9.542;2022-08-21T08:40:46;12.50;;;11.30;;
462;SDS011;218;51.902;9.542;2022-08-21T08:43:19;10.57;;;9.50;;
462;SDS011;218;51.902;9.542;2022-08-21T08:45:49;10.60;;;9.50;;
462;SDS011;218;51.902;9.542;2022-08-21T08:48:21;11.20;;;10.33;;
462;SDS011;218;51.902;9.542;2022-08-21T08:50:59;11.90;;;9.47;;
462;SDS011;218;51.902;9.542;2022-08-21T08:53:28;9.70;;;8.87;;
462;SDS011;218;51.902;9.542;2022-08-21T08:56:00;9.57;;;8.77;;
462;SDS011;218;51.902;9.542;2022-08-21T08:58:30;8.87;;;8.17;;
462;SDS011;218;51.902;9.542;2022-08-21T09:01:00;6.10;;;5.50;;
462;SDS011;218;51.902;9.542;2022-08-21T09:03:31;4.50;;;4.20;;
462;SDS011;218;51.902;9.542;2022-08-21T09:06:00;5.63;;;5.10;;
462;SDS011;218;51.902;9.542;2022-08-21T09:08:40;5.13;;;4.63;;
462;SDS011;218;51.902;9.542;2022-08-21T09:11:19;8.63;;;6.10;;
462;SDS011;218;51.902;9.542;2022-08-21T09:13:55;5.83;;;5.33;;
462;SDS011;218;51.902;9.542;2022-08-21T09:16:35;7.33;;;6.60;;
462;SDS011;218;51.902;9.542;2022-08-21T09:19:08;6.30;;;5.90;;
462;SDS011;218;51.902;9.542;2022-08-21T09:21:46;4.80;;;4.40;;
462;SDS011;218;51.902;9.542;2022-08-21T09:24:24;5.77;;;5.30;;
462;SDS011;218;51.902;9.542;2022-08-21T09:27:00;8.67;;;5.07;;
462;SDS011;218;51.902;9.542;2022-08-21T09:29:33;5.87;;;4.60;;
462;SDS011;218;51.902;9.542;2022-08-21T09:32:06;5.77;;;5.27;;
462;SDS011;218;51.902;9.542;2022-08-21T09:34:39;4.43;;;4.13;;
462;SDS011;218;51.902;9.542;2022-08-21T09:37:15;4.70;;;4.30;;
462;SDS011;218;51.902;9.542;2022-08-21T09:39:43;5.17;;;4.77;;
462;SDS011;218;51.902;9.542;2022-08-21T09:42:10;6.20;;;4.47;;
462;SDS011;218;51.902;9.542;2022-08-21T09:44:38;4.53;;;4.03;;
462;SDS011;218;51.902;9.542;2022-08-21T09:47:10;5.63;;;5.03;;
462;SDS011;218;51.902;9.542;2022-08-21T09:49:38;5.63;;;4.20;;
462;SDS011;218;51.902;9.542;2022-08-21T09:52:14;5.30;;;4.53;;
462;SDS011;218;51.902;9.542;2022-08-21T09:54:45;4.40;;;4.00;;
462;SDS011;218;51.902;9.542;2022-08-21T09:57:14;8.77;;;3.80;;
462;SDS011;218;51.902;9.542;2022-08-21T10:00:24;4.37;;;3.37;;
462;SDS011;218;51.902;9.542;2022-08-21T10:02:55;4.60;;;3.70;;
462;SDS011;218;51.902;9.542;2022-08-21T10:05:36;3.30;;;3.00;;
462;SDS011;218;51.902;9.542;2022-08-21T10:08:04;8.27;;;3.90;;
462;SDS011;218;51.902;9.542;2022-08-21T10:10:32;5.50;;;3.10;;
462;SDS011;218;51.902;9.542;2022-08-21T10:13:04;4.23;;;3.20;;
462;SDS011;218;51.902;9.542;2022-08-21T10:15:40;5.17;;;3.17;;
462;SDS011;218;51.902;9.542;2022-08-21T10:18:17;3.47;;;3.10;;
462;SDS011;218;51.902;9.542;2022-08-21T10:20:49;2.87;;;2.67;;
462;SDS011;218;51.902;9.542;2022-08-21T10:23:38;4.77;;;3.70;;
462;SDS011;218;51.902;9.542;2022-08-21T10:26:26;5.60;;;3.37;;
462;SDS011;218;51.902;9.542;2022-08-21T10:29:02;5.20;;;3.00;;
462;SDS011;218;51.902;9.542;2022-08-21T10:31:39;4.03;;;3.30;;
462;SDS011;218;51.902;9.542;2022-08-21T10:34:19;3.73;;;3.33;;
462;SDS011;218;51.902;9.542;2022-08-21T10:37:01;3.23;;;2.93;;
462;SDS011;218;51.902;9.542;2022-08-21T10:39:41;4.20;;;3.90;;
462;SDS011;218;51.902;9.542;2022-08-21T10:42:19;3.10;;;2.57;;
462;SDS011;218;51.902;9.542;2022-08-21T10:44:54;4.03;;;3.50;;
462;SDS011;218;51.902;9.542;2022-08-21T10:47:42;3.40;;;3.10;;
462;SDS011;218;51.902;9.542;2022-08-21T10:50:19;3.10;;;2.47;;
462;SDS011;218;51.902;9.542;2022-08-21T10:52:58;2.90;;;2.63;;
462;SDS011;218;51.902;9.542;2022-08-21T10:55:36;4.70;;;3.17;;
462;SDS011;218;51.902;9.542;2022-08-21T10:58:08;2.97;;;2.70;;
462;SDS011;218;51.902;9.542;2022-08-21T11:00:39;2.80;;;2.60;;
462;SDS011;218;51.902;9.542;2022-08-21T11:03:11;2.97;;;2.77;;
462;SDS011;218;51.902;9.542;2022-08-21T11:05:43;4.43;;;3.17;;
462;SDS011;218;51.902;9.542;2022-08-21T11:08:17;2.83;;;2.57;;
462;SDS011;218;51.902;9.542;2022-08-21T11:10:50;4.20;;;2.73;;
462;SDS011;218;51.902;9.542;2022-08-21T11:13:25;3.20;;;3.00;;
462;SDS011;218;51.902;9.542;2022-08-21T11:16:00;3.13;;;2.83;;
462;SDS011;218;51.902;9.542;2022-08-21T11:18:32;5.90;;;3.10;;
462;SDS011;218;51.902;9.542;2022-08-21T11:21:15;2.97;;;2.40;;
462;SDS011;218;51.902;9.542;2022-08-21T11:23:54;3.47;;;2.57;;
462;SDS011;218;51.902;9.542;2022-08-21T11:26:30;2.73;;;2.53;;
462;SDS011;218;51.902;9.542;2022-08-21T11:29:04;3.70;;;3.30;;
462;SDS011;218;51.902;9.542;2022-08-21T11:31:44;2.93;;;2.73;;
462;SDS011;218;51.902;9.542;2022-08-21T11:34:26;3.37;;;2.90;;
462;SDS011;218;51.902;9.542;2022-08-21T11:37:08;3.20;;;2.90;;
462;SDS011;218;51.902;9.542;2022-08-21T11:39:44;3.00;;;2.80;;
462;SDS011;218;51.902;9.542;2022-08-21T11:42:21;3.33;;;3.03;;
462;SDS011;218;51.902;9.542;2022-08-21T11:44:56;3.57;;;3.37;;
462;SDS011;218;51.902;9.542;2022-08-21T11:47:37;3.97;;;3.57;;
462;SDS011;218;51.902;9.542;2022-08-21T11:50:17;3.30;;;3.10;;
462;SDS011;218;51.902;9.542;2022-08-21T11:52:49;3.60;;;3.40;;
462;SDS011;218;51.902;9.542;2022-08-21T11:55:22;3.30;;;3.10;;
462;SDS011;218;51.902;9.542;2022-08-21T11:57:54;2.93;;;2.83;;
462;SDS011;218;51.902;9.542;2022-08-21T12:00:26;3.57;;;3.23;;
462;SDS011;218;51.902;9.542;2022-08-21T12:02:59;3.13;;;2.93;;
462;SDS011;218;51.902;9.542;2022-08-21T12:05:36;4.63;;;3.50;;
462;SDS011;218;51.902;9.542;2022-08-21T12:08:10;3.77;;;3.33;;
462;SDS011;218;51.902;9.542;2022-08-21T12:10:40;3.27;;;3.07;;
462;SDS011;218;51.902;9.542;2022-08-21T12:13:09;3.63;;;3.43;;
462;SDS011;218;51.902;9.542;2022-08-21T12:15:39;3.97;;;3.37;;
462;SDS011;218;51.902;9.542;2022-08-21T12:18:18;3.83;;;3.53;;
462;SDS011;218;51.902;9.542;2022-08-21T12:20:56;3.10;;;2.90;;
462;SDS011;218;51.902;9.542;2022-08-21T12:23:28;3.17;;;2.97;;
462;SDS011;218;51.902;9.542;2022-08-21T12:28:47;3.80;;;3.50;;
462;SDS011;218;51.902;9.542;2022-08-21T12:31:18;3.93;;;3.63;;
462;SDS011;218;51.902;9.542;2022-08-21T12:33:50;3.20;;;3.00;;
462;SDS011;218;51.902;9.542;2022-08-21T12:36:21;3.73;;;3.43;;
462;SDS011;218;51.902;9.542;2022-08-21T12:38:54;3.90;;;3.60;;
462;SDS011;218;51.902;9.542;2022-08-21T12:41:25;3.50;;;3.30;;
462;SDS011;218;51.902;9.542;2022-08-21T12:43:56;3.20;;;3.00;;
462;SDS011;218;51.902;9.542;2022-08-21T12:46:29;3.67;;;3.37;;
462;SDS011;218;51.902;9.542;2022-08-21T12:49:03;3.30;;;3.10;;
462;SDS011;218;51.902;9.542;2022-08-21T12:51:43;3.37;;;3.17;;
462;SDS011;218;51.902;9.542;2022-08-21T12:54:23;3.73;;;3.43;;
462;SDS011;218;51.902;9.542;2022-08-21T12:56:55;3.47;;;3.27;;
462;SDS011;218;51.902;9.542;2022-08-21T12:59:23;3.30;;;3.10;;
462;SDS011;218;51.902;9.542;2022-08-21T13:01:50;3.63;;;3.37;;
462;SDS011;218;51.902;9.542;2022-08-21T13:04:21;4.27;;;3.97;;
462;SDS011;218;51.902;9.542;2022-08-21T13:06:52;4.27;;;3.30;;
462;SDS011;218;51.902;9.542;2022-08-21T13:09:25;3.40;;;3.10;;
462;SDS011;218;51.902;9.542;2022-08-21T13:11:55;3.20;;;2.90;;
462;SDS011;218;51.902;9.542;2022-08-21T13:14:24;3.80;;;3.50;;
462;SDS011;218;51.902;9.542;2022-08-21T13:16:55;3.50;;;3.30;;
462;SDS011;218;51.902;9.542;2022-08-21T13:19:23;2.80;;;2.60;;
462;SDS011;218;51.902;9.542;2022-08-21T13:21:51;4.00;;;3.70;;
462;SDS011;218;51.902;9.542;2022-08-21T13:24:20;3.23;;;3.03;;
462;SDS011;218;51.902;9.542;2022-08-21T13:26:50;3.40;;;3.23;;
462;SDS011;218;51.902;9.542;2022-08-21T13:29:21;3.83;;;3.53;;
462;SDS011;218;51.902;9.542;2022-08-21T13:31:51;5.10;;;3.40;;
462;SDS011;218;51.902;9.542;2022-08-21T13:34:19;3.13;;;2.93;;
462;SDS011;218;51.902;9.542;2022-08-21T13:36:50;3.40;;;3.20;;
462;SDS011;218;51.902;9.542;2022-08-21T13:39:20;3.23;;;3.03;;
462;SDS011;218;51.902;9.542;2022-08-21T13:41:49;3.87;;;3.67;;
462;SDS011;218;51.902;9.542;2022-08-21T13:44:21;3.53;;;3.33;;
462;SDS011;218;51.902;9.542;2022-08-21T13:46:51;3.03;;;2.83;;
462;SDS011;218;51.902;9.542;2022-08-21T13:49:20;3.97;;;3.60;;
462;SDS011;218;51.902;9.542;2022-08-21T13:51:52;3.67;;;3.47;;
462;SDS011;218;51.902;9.542;2022-08-21T13:54:21;3.33;;;3.13;;
462;SDS011;218;51.902;9.542;2022-08-21T13:56:52;3.90;;;3.70;;
462;SDS011;218;51.902;9.542;2022-08-21T13:59:23;3.60;;;3.30;;
462;SDS011;218;51.902;9.542;2022-08-21T14:01:52;3.90;;;3.50;;
462;SDS011;218;51.902;9.542;2022-08-21T14:04:25;3.70;;;3.50;;
462;SDS011;218;51.902;9.542;2022-08-21T14:06:57;3.70;;;3.40;;
462;SDS011;218;51.902;9.542;2022-08-21T14:09:26;3.30;;;3.10;;
462;SDS011;218;51.902;9.542;2022-08-21T14:11:58;3.50;;;3.30;;
462;SDS011;218;51.902;9.542;2022-08-21T14:14:28;3.20;;;3.00;;
462;SDS011;218;51.902;9.542;2022-08-21T14:16:58;3.30;;;3.00;;
462;SDS011;218;51.902;9.542;2022-08-21T14:19:35;4.53;;;3.30;;
462;SDS011;218;51.902;9.542;2022-08-21T14:24:50;3.53;;;3.33;;
462;SDS011;218;51.902;9.542;2022-08-21T14:27:29;4.00;;;3.80;;
462;SDS011;218;51.902;9.542;2022-08-21T14:29:58;3.53;;;3.33;;
462;SDS011;218;51.902;9.542;2022-08-21T14:32:27;3.53;;;3.30;;
462;SDS011;218;51.902;9.542;2022-08-21T14:34:56;3.50;;;3.20;;
462;SDS011;218;51.902;9.542;2022-08-21T14:37:23;3.00;;;2.90;;
462;SDS011;218;51.902;9.542;2022-08-21T14:39:50;5.63;;;3.97;;
462;SDS011;218;51.902;9.542;2022-08-21T14:42:17;3.50;;;3.30;;
462;SDS011;218;51.902;9.542;2022-08-21T14:44:47;4.40;;;4.10;;
462;SDS011;218;51.902;9.542;2022-08-21T14:47:14;3.57;;;3.37;;
462;SDS011;218;51.902;9.542;2022-08-21T14:49:42;3.20;;;2.90;;
462;SDS011;218;51.902;9.542;2022-08-21T14:52:09;4.43;;;3.17;;
462;SDS011;218;51.902;9.542;2022-08-21T14:54:36;3.70;;;3.40;;
462;SDS011;218;51.902;9.542;2022-08-21T14:57:04;3.90;;;3.30;;
462;SDS011;218;51.902;9.542;2022-08-21T14:59:34;3.23;;;3.03;;
462;SDS011;218;51.902;9.542;2022-08-21T15:02:03;3.67;;;3.47;;
462;SDS011;218;51.902;9.542;2022-08-21T15:04:34;3.63;;;3.40;;
462;SDS011;218;51.902;9.542;2022-08-21T15:07:04;3.30;;;3.10;;
462;SDS011;218;51.902;9.542;2022-08-21T15:09:31;3.20;;;3.00;;
462;SDS011;218;51.902;9.542;2022-08-21T15:11:58;3.70;;;3.40;;
462;SDS011;218;51.902;9.542;2022-08-21T15:14:28;3.73;;;3.10;;
462;SDS011;218;51.902;9.542;2022-08-21T15:16:56;3.27;;;3.07;;
462;SDS011;218;51.902;9.542;2022-08-21T15:19:25;3.80;;;3.50;;
462;SDS011;218;51.902;9.542;2022-08-21T15:21:55;3.73;;;3.40;;
462;SDS011;218;51.902;9.542;2022-08-21T15:24:25;3.53;;;3.00;;
462;SDS011;218;51.902;9.542;2022-08-21T15:26:52;3.37;;;3.07;;
462;SDS011;218;51.902;9.542;2022-08-21T15:29:20;3.47;;;3.27;;
462;SDS011;218;51.902;9.542;2022-08-21T15:31:51;3.10;;;2.90;;
462;SDS011;218;51.902;9.542;2022-08-21T15:34:20;3.43;;;3.13;;
462;SDS011;218;51.902;9.542;2022-08-21T15:36:49;3.70;;;3.43;;
462;SDS011;218;51.902;9.542;2022-08-21T15:39:16;3.13;;;2.93;;
462;SDS011;218;51.902;9.542;2022-08-21T15:41:43;3.23;;;3.03;;
462;SDS011;218;51.902;9.542;2022-08-21T15:44:11;3.73;;;3.30;;
462;SDS011;218;51.902;9.542;2022-08-21T15:46:39;3.33;;;3.10;;
462;SDS011;218;51.902;9.542;2022-08-21T15:49:07;3.53;;;3.30;;
462;SDS011;218;51.902;9.542;2022-08-21T15:51:34;3.30;;;3.10;;
462;SDS011;218;51.902;9.542;2022-08-21T15:54:03;3.33;;;3.13;;
462;SDS011;218;51.902;9.542;2022-08-21T15:56:32;2.97;;;2.77;;
462;SDS011;218;51.902;9.542;2022-08-21T15:59:02;3.83;;;3.10;;
462;SDS011;218;51.902;9.542;2022-08-21T16:01:31;3.67;;;3.47;;
462;SDS011;218;51.902;9.542;2022-08-21T16:03:59;3.40;;;3.20;;
462;SDS011;218;51.902;9.542;2022-08-21T16:06:26;3.60;;;3.40;;